createdAt,value
2019-06-01T00:04:14.830Z,100.00
2019-06-01T00:09:39.015Z,100.00
2019-06-01T00:15:03.054Z,100.00
2019-06-01T00:20:26.959Z,100.00
2019-06-01T00:25:50.770Z,100.00
2019-06-01T00:31:15.254Z,100.00
2019-06-01T00:36:39.716Z,100.00
2019-06-01T00:42:04.249Z,100.00
2019-06-01T00:47:29.021Z,100.00
2019-06-01T00:52:53.829Z,100.00
2019-06-01T00:58:19.007Z,100.00
2019-06-01T01:03:43.994Z,100.00
2019-06-01T01:09:08.995Z,100.00
2019-06-01T01:14:32.914Z,100.00
2019-06-01T01:19:56.779Z,100.00
2019-06-01T01:25:21.597Z,100.00
2019-06-01T01:31:01.639Z,100.00
2019-06-01T01:36:11.768Z,100.00
2019-06-01T01:41:37.188Z,100.00
2019-06-01T01:47:01.244Z,100.00
2019-06-01T01:52:25.807Z,100.00
2019-06-01T01:57:51.191Z,100.00
2019-06-01T02:03:15.933Z,100.00
2019-06-01T02:08:40.667Z,100.00
2019-06-01T02:14:05.633Z,100.00
2019-06-01T02:19:29.970Z,100.00
2019-06-01T02:24:54.166Z,100.00
2019-06-01T02:30:19.214Z,100.00
2019-06-01T02:35:43.031Z,100.00
2019-06-01T02:41:07.003Z,100.00
2019-06-01T02:46:35.421Z,100.00
2019-06-01T02:51:57.211Z,100.00
2019-06-01T02:57:21.254Z,100.00
2019-06-01T03:02:47.581Z,100.00
2019-06-01T03:08:12.861Z,100.00
2019-06-01T03:13:39.948Z,100.00
2019-06-01T03:19:03.874Z,100.00
2019-06-01T03:24:29.896Z,100.00
2019-06-01T03:29:57.203Z,100.00
2019-06-01T03:35:21.937Z,100.00
2019-06-01T03:40:45.781Z,100.00
2019-06-01T03:46:10.797Z,100.00
2019-06-01T03:51:34.615Z,100.00
2019-06-01T03:56:59.364Z,100.00
2019-06-01T04:02:32.910Z,100.00
2019-06-01T04:07:48.317Z,100.00
2019-06-01T04:13:12.818Z,100.00
2019-06-01T04:18:37.771Z,100.00
2019-06-01T04:24:01.924Z,100.00
2019-06-01T04:29:26.627Z,100.00
2019-06-01T04:34:50.495Z,100.00
2019-06-01T04:40:14.851Z,100.00
2019-06-01T04:45:39.625Z,97.98
2019-06-01T04:51:04.541Z,96.45
2019-06-01T04:56:28.233Z,95.98
2019-06-01T05:01:53.924Z,97.74
2019-06-01T05:07:18.636Z,98.79
2019-06-01T05:12:43.212Z,98.83
2019-06-01T05:18:07.959Z,93.12
2019-06-01T05:23:32.416Z,87.81
2019-06-01T05:28:56.640Z,89.61
2019-06-01T05:34:20.709Z,91.42
2019-06-01T05:39:45.323Z,94.14
2019-06-01T05:45:11.289Z,92.53
2019-06-01T05:50:35.051Z,93.05
2019-06-01T05:55:59.677Z,93.09
2019-06-01T06:01:23.666Z,94.44
2019-06-01T06:06:47.983Z,93.07
2019-06-01T06:12:15.289Z,92.68
2019-06-01T06:17:40.897Z,92.07
2019-06-01T06:23:05.941Z,90.60
2019-06-01T06:28:30.736Z,89.52
2019-06-01T06:33:56.827Z,88.75
2019-06-01T06:39:22.093Z,88.51
2019-06-01T06:44:47.064Z,90.71
2019-06-01T06:50:15.786Z,88.54
2019-06-01T06:55:40.785Z,85.87
2019-06-01T07:01:05.479Z,82.52
2019-06-01T07:06:30.172Z,78.97
2019-06-01T07:11:53.982Z,77.14
2019-06-01T07:17:17.730Z,71.65
2019-06-01T07:22:42.580Z,66.59
2019-06-01T07:28:06.614Z,64.78
2019-06-01T07:33:30.375Z,64.35
2019-06-01T07:38:54.164Z,60.80
2019-06-01T07:44:18.931Z,59.22
2019-06-01T07:49:44.422Z,58.93
2019-06-01T07:55:09.655Z,56.33
2019-06-01T08:00:33.426Z,55.85
2019-06-01T08:05:57.796Z,54.66
2019-06-01T08:11:25.201Z,51.37
2019-06-01T08:16:48.434Z,50.28
2019-06-01T08:22:13.106Z,50.30
2019-06-01T08:27:38.148Z,49.42
2019-06-01T08:33:02.562Z,49.33
2019-06-01T08:38:27.504Z,47.80
2019-06-01T08:43:51.761Z,45.25
2019-06-01T08:49:15.646Z,44.91
2019-06-01T08:54:39.463Z,46.40
2019-06-01T09:00:03.777Z,48.30
2019-06-01T09:05:30.445Z,44.93
2019-06-01T09:10:54.753Z,44.94
2019-06-01T09:16:19.424Z,44.54
2019-06-01T09:21:43.804Z,42.79
2019-06-01T09:27:08.013Z,44.90
2019-06-01T09:32:32.195Z,43.75
2019-06-01T09:37:56.419Z,42.60
2019-06-01T09:43:20.312Z,41.20
2019-06-01T09:48:44.911Z,43.58
2019-06-01T09:54:09.610Z,42.05
2019-06-01T09:59:34.102Z,41.59
2019-06-01T10:04:58.333Z,42.88
2019-06-01T10:10:23.206Z,42.23
2019-06-01T10:15:46.832Z,37.53
2019-06-01T10:21:10.458Z,39.30
2019-06-01T10:26:35.622Z,40.79
2019-06-01T10:32:00.539Z,35.15
2019-06-01T10:37:25.471Z,38.99
2019-06-01T10:42:49.791Z,39.41
2019-06-01T10:48:13.465Z,37.30
2019-06-01T10:53:38.543Z,36.51
2019-06-01T10:59:03.145Z,38.99
2019-06-01T11:04:27.598Z,38.29
2019-06-01T11:09:51.614Z,38.62
2019-06-01T11:15:15.943Z,35.53
2019-06-01T11:20:41.492Z,38.24
2019-06-01T11:26:06.109Z,36.38
2019-06-01T11:31:29.948Z,34.99
2019-06-01T11:37:05.118Z,35.22
2019-06-01T11:42:20.246Z,32.82
2019-06-01T11:47:45.227Z,32.65
2019-06-01T11:53:09.743Z,32.44
2019-06-01T11:58:35.153Z,33.07
2019-06-01T12:03:59.685Z,32.68
2019-06-01T12:09:24.227Z,30.58
2019-06-01T12:14:48.978Z,32.32
2019-06-01T12:20:13.552Z,33.28
2019-06-01T12:25:38.429Z,32.54
2019-06-01T12:31:02.823Z,30.40
2019-06-01T12:36:26.803Z,29.78
2019-06-01T12:41:51.839Z,31.10
2019-06-01T12:47:17.566Z,30.41
2019-06-01T12:52:42.271Z,32.04
2019-06-01T12:58:06.111Z,32.59
2019-06-01T13:03:30.555Z,30.98
2019-06-01T13:08:54.271Z,30.60
2019-06-01T13:14:18.595Z,30.68
2019-06-01T13:19:43.318Z,31.25
2019-06-01T13:25:08.578Z,30.42
2019-06-01T13:30:32.981Z,31.13
2019-06-01T13:35:57.445Z,28.91
2019-06-01T13:41:21.878Z,28.41
2019-06-01T13:46:47.434Z,30.69
2019-06-01T13:52:11.346Z,30.90
2019-06-01T13:57:39.473Z,28.98
2019-06-01T14:03:01.681Z,29.93
2019-06-01T14:08:29.272Z,30.48
2019-06-01T14:13:52.057Z,27.58
2019-06-01T14:19:17.697Z,26.96
2019-06-01T14:24:44.419Z,27.91
2019-06-01T14:30:08.259Z,28.69
2019-06-01T14:35:35.522Z,28.38
2019-06-01T14:40:57.485Z,28.06
2019-06-01T14:46:21.628Z,28.08
2019-06-01T14:51:47.543Z,27.99
2019-06-01T14:57:11.727Z,28.51
2019-06-01T15:02:36.874Z,27.70
2019-06-01T15:08:00.863Z,27.20
2019-06-01T15:13:25.463Z,26.19
2019-06-01T15:18:49.549Z,27.22
2019-06-01T15:24:13.372Z,26.35
2019-06-01T15:29:37.475Z,28.46
2019-06-01T15:35:01.292Z,25.75
2019-06-01T15:40:26.046Z,27.08
2019-06-01T15:45:51.209Z,27.53
2019-06-01T15:51:15.181Z,28.91
2019-06-01T15:56:39.140Z,27.79
2019-06-01T16:02:03.945Z,29.43
2019-06-01T16:07:27.509Z,29.92
2019-06-01T16:12:53.365Z,31.38
2019-06-01T16:18:17.179Z,29.86
2019-06-01T16:23:49.874Z,29.55
2019-06-01T16:29:06.998Z,28.85
2019-06-01T16:34:30.845Z,29.96
2019-06-01T16:40:02.118Z,29.77
2019-06-01T16:45:20.292Z,29.64
2019-06-01T16:50:44.788Z,29.61
2019-06-01T16:56:09.429Z,30.82
2019-06-01T17:01:34.186Z,31.93
2019-06-01T17:06:58.639Z,33.41
2019-06-01T17:12:23.255Z,32.83
2019-06-01T17:17:47.669Z,32.15
2019-06-01T17:23:25.887Z,31.92
2019-06-01T17:28:50.644Z,31.53
2019-06-01T17:34:15.407Z,30.49
2019-06-01T17:39:40.179Z,31.75
2019-06-01T17:45:06.364Z,31.74
2019-06-01T17:50:31.060Z,32.45
2019-06-01T17:55:54.992Z,33.42
2019-06-01T18:01:22.871Z,33.83
2019-06-01T18:06:47.662Z,35.67
2019-06-01T18:12:12.299Z,37.47
2019-06-01T18:17:35.712Z,38.05
2019-06-01T18:23:00.422Z,38.98
2019-06-01T18:28:24.372Z,39.90
2019-06-01T18:33:48.882Z,38.95
2019-06-01T18:39:13.741Z,40.91
2019-06-01T18:44:37.457Z,40.55
2019-06-01T18:50:03.817Z,41.71
2019-06-01T18:55:28.290Z,42.58
2019-06-01T19:00:52.925Z,42.87
2019-06-01T19:06:18.318Z,43.09
2019-06-01T19:11:43.025Z,43.78
2019-06-01T19:17:08.246Z,46.25
2019-06-01T19:22:32.846Z,46.25
2019-06-01T19:27:57.370Z,47.05
2019-06-01T19:33:22.167Z,48.81
2019-06-01T19:38:47.417Z,50.72
2019-06-01T19:44:11.894Z,50.93
2019-06-01T19:49:35.491Z,51.57
2019-06-01T19:54:59.972Z,52.50
2019-06-01T20:00:23.912Z,55.79
2019-06-01T20:05:47.681Z,56.86
2019-06-01T20:11:13.558Z,57.87
2019-06-01T20:16:37.394Z,59.03
2019-06-01T20:22:01.943Z,59.32
2019-06-01T20:27:26.523Z,61.23
2019-06-01T20:32:51.181Z,62.20
2019-06-01T20:38:16.583Z,63.07
2019-06-01T20:43:42.322Z,62.81
2019-06-01T20:49:07.144Z,64.73
2019-06-01T20:54:31.411Z,64.18
2019-06-01T20:59:55.364Z,66.36
2019-06-01T21:05:20.065Z,67.13
2019-06-01T21:10:43.863Z,71.09
2019-06-01T21:16:08.513Z,72.00
2019-06-01T21:21:32.963Z,72.30
2019-06-01T21:26:57.456Z,72.43
2019-06-01T21:32:23.645Z,75.23
2019-06-01T21:37:48.302Z,74.21
2019-06-01T21:43:23.486Z,74.41
2019-06-01T21:48:38.124Z,75.32
2019-06-01T21:54:02.096Z,76.30
2019-06-01T21:59:27.218Z,76.21
2019-06-01T22:04:51.066Z,77.47
2019-06-01T22:10:17.029Z,79.55
2019-06-01T22:15:40.658Z,81.40
2019-06-01T22:21:05.135Z,80.86
2019-06-01T22:26:30.927Z,79.86
2019-06-01T22:31:54.781Z,82.24
2019-06-01T22:37:19.782Z,81.48
2019-06-01T22:42:44.334Z,82.56
2019-06-01T22:48:08.987Z,80.76
2019-06-01T22:53:32.661Z,82.62
2019-06-01T22:58:57.376Z,82.56
2019-06-01T23:04:22.991Z,83.93
2019-06-01T23:09:46.648Z,82.33
2019-06-01T23:15:11.262Z,82.38
2019-06-01T23:20:35.156Z,83.45
2019-06-01T23:25:59.050Z,84.59
2019-06-01T23:31:24.318Z,82.95
2019-06-01T23:36:47.844Z,81.62
2019-06-01T23:42:11.684Z,79.77
2019-06-01T23:47:36.434Z,79.91
2019-06-01T23:53:13.170Z,79.29
2019-06-01T23:58:26.197Z,78.72
